Terminal Aerodrome Forecast
Issued by NWS

Home | Current Version | Previous Version | Text Only | Print | Product List | Glossary On
Versions: 1 2 3 4 5 6 7 8 9 10 11 12 13
944
FTUS46 KMTR 281149 AAA
TAFSTS
TAF AMD
KSTS 281149Z 2812/2912 VRB03KT P6SM SCT003
     FM281300 VRB03KT 1/2SM FG BKN001
     FM281600 VRB03KT P6SM SCT004
     FM281800 17008KT P6SM SKC
     FM290400 24004KT P6SM SKC=

USA.gov is the U.S. government's official web portal to all federal, state and local government web resources and services.